Time;durP1;ratioP1;P1;durP2;ratioP2;P2;SDS_P1;SDS_P2;PMS_P1;PMS_P2;Temp;Humidity;BMP_temperature;BMP_pressure;BME280_temperature;BME280_humidity;BME280_pressure;Samples;Min_cycle;Max_cycle;Signal;HPM_P1;HPM_P2
2023/05/14 00:01:47;;;;;;;10.47;7.37;;;;;;;11.59;100.00;101498.81;7393884;19;20817;-42
2023/05/14 00:04:18;;;;;;;13.70;7.33;;;;;;;11.43;100.00;101494.56;7397315;19;20468;-42
2023/05/14 00:06:48;;;;;;;14.23;7.60;;;;;;;11.39;100.00;101508.13;7396569;19;20779;-42
2023/05/14 00:09:20;;;;;;;11.50;7.30;;;;;;;11.34;100.00;101509.63;7398653;19;20407;-44
2023/05/14 00:11:49;;;;;;;12.00;6.50;;;;;;;11.34;100.00;101522.53;7395506;19;20418;-40
2023/05/14 00:14:19;;;;;;;13.40;6.97;;;;;;;11.26;100.00;101526.41;7397295;19;21094;-38
2023/05/14 00:16:48;;;;;;;12.80;7.60;;;;;;;11.15;100.00;101531.03;7395467;19;20432;-41
2023/05/14 00:19:18;;;;;;;14.20;8.10;;;;;;;11.13;100.00;101536.13;7398095;19;20771;-41
2023/05/14 00:21:48;;;;;;;11.20;7.77;;;;;;;11.15;100.00;101539.69;7396317;19;20419;-41
2023/05/14 00:24:20;;;;;;;10.87;7.60;;;;;;;11.00;100.00;101536.28;7398521;19;20474;-41
2023/05/14 00:26:50;;;;;;;9.50;7.07;;;;;;;10.85;100.00;101551.84;7395648;19;20961;-45
2023/05/14 00:29:19;;;;;;;14.00;7.53;;;;;;;10.89;100.00;101577.94;7397734;19;20411;-40
2023/05/14 00:31:49;;;;;;;14.60;7.80;;;;;;;10.86;100.00;101580.34;7394390;19;20413;-44
2023/05/14 00:34:18;;;;;;;12.47;7.80;;;;;;;10.82;100.00;101582.69;7398478;19;20446;-42
2023/05/14 00:36:48;;;;;;;12.50;7.87;;;;;;;10.74;100.00;101571.94;7396804;19;20439;-42
2023/05/14 00:39:20;;;;;;;11.10;7.80;;;;;;;10.67;100.00;101588.78;7397737;19;20414;-40
2023/05/14 00:41:50;;;;;;;12.00;7.90;;;;;;;10.62;100.00;101598.84;7394331;19;20414;-40
2023/05/14 00:44:19;;;;;;;14.00;8.80;;;;;;;10.65;100.00;101606.75;7397141;19;20481;-41
2023/05/14 00:46:49;;;;;;;12.10;8.00;;;;;;;10.69;100.00;101614.66;7394468;19;20422;-42
2023/05/14 00:49:19;;;;;;;15.30;8.10;;;;;;;10.56;100.00;101606.25;7399994;19;20429;-43
2023/05/14 00:51:49;;;;;;;14.37;7.97;;;;;;;10.47;100.00;101608.31;7393396;19;20995;-42
2023/05/14 00:54:21;;;;;;;12.93;7.93;;;;;;;10.40;100.00;101614.78;7396908;19;20449;-42
2023/05/14 00:56:52;;;;;;;12.00;7.80;;;;;;;10.53;100.00;101637.06;7394803;19;20425;-41
2023/05/14 00:59:21;;;;;;;19.83;8.13;;;;;;;10.49;100.00;101635.09;7400233;19;20440;-41
2023/05/14 01:01:51;;;;;;;13.57;8.30;;;;;;;10.58;100.00;101640.78;7393581;19;20978;-41
2023/05/14 01:04:20;;;;;;;13.97;9.47;;;;;;;10.80;100.00;101648.03;7396408;19;20983;-43
2023/05/14 01:06:58;;;;;;;13.23;8.13;;;;;;;10.73;100.00;101635.59;7395340;19;20428;-42
2023/05/14 01:09:36;;;;;;;12.70;8.17;;;;;;;10.52;100.00;101640.44;7398329;19;20432;-44
2023/05/14 01:12:11;;;;;;;12.77;7.77;;;;;;;10.35;100.00;101662.66;7391334;19;20437;-43
2023/05/14 01:14:46;;;;;;;12.20;8.63;;;;;;;10.21;100.00;101674.78;7397879;19;20408;-42
2023/05/14 01:17:18;;;;;;;12.20;7.97;;;;;;;10.12;100.00;101678.56;7391519;19;20448;-42
2023/05/14 01:19:49;;;;;;;15.30;8.00;;;;;;;10.07;100.00;101685.19;7393985;19;20927;-42
2023/05/14 01:22:22;;;;;;;13.10;8.50;;;;;;;10.18;100.00;101690.06;7391631;19;20421;-43
2023/05/14 01:24:51;;;;;;;15.90;8.20;;;;;;;10.19;100.00;101682.41;7394842;19;20385;-48
2023/05/14 01:27:26;;;;;;;14.37;8.10;;;;;;;10.05;100.00;101673.84;7392130;19;20436;-42
2023/05/14 01:30:01;;;;;;;12.73;7.60;;;;;;;10.05;100.00;101678.16;7394958;19;20391;-40
2023/05/14 01:32:31;;;;;;;12.40;7.70;;;;;;;10.11;100.00;101678.50;7391485;19;20451;-45
2023/05/14 01:35:02;;;;;;;11.83;8.07;;;;;;;10.10;100.00;101672.44;7393600;19;20954;-39
2023/05/14 01:37:34;;;;;;;10.87;7.30;;;;;;;10.08;100.00;101666.31;7391784;19;20416;-43
2023/05/14 01:40:04;;;;;;;11.30;8.27;;;;;;;10.03;100.00;101657.41;7390165;19;20395;-42
2023/05/14 01:42:34;;;;;;;17.40;10.50;;;;;;;9.95;100.00;101671.56;7392288;19;20503;-42
2023/05/14 01:45:04;;;;;;;14.30;8.53;;;;;;;9.95;100.00;101676.72;7396682;19;20428;-43
2023/05/14 01:47:34;;;;;;;12.00;7.60;;;;;;;9.94;100.00;101673.22;7393580;19;20438;-41
2023/05/14 01:50:03;;;;;;;10.77;6.73;;;;;;;9.97;100.00;101675.09;7399184;19;20401;-43
2023/05/14 01:52:36;;;;;;;12.03;7.17;;;;;;;9.99;100.00;101668.34;7393240;19;20472;-44
2023/05/14 01:55:06;;;;;;;11.50;7.40;;;;;;;9.95;100.00;101671.56;7396052;19;20412;-44
2023/05/14 01:57:36;;;;;;;16.80;7.50;;;;;;;9.96;100.00;101668.19;7393714;19;20439;-43
2023/05/14 02:00:07;;;;;;;12.00;7.87;;;;;;;9.91;100.00;101659.28;7396463;19;20431;-41
2023/05/14 02:02:36;;;;;;;11.10;7.30;;;;;;;9.87;100.00;101678.84;7390274;19;20448;-43
2023/05/14 02:05:07;;;;;;;12.27;7.10;;;;;;;9.69;100.00;101671.78;7397383;19;20436;-41
2023/05/14 02:07:39;;;;;;;15.73;6.50;;;;;;;9.67;100.00;101682.78;7393440;19;20436;-43
2023/05/14 02:10:10;;;;;;;10.37;7.33;;;;;;;9.67;100.00;101700.81;7395569;19;20424;-41
2023/05/14 02:12:40;;;;;;;8.93;6.57;;;;;;;9.60;100.00;101704.72;7390852;19;20455;-43
2023/05/14 02:15:11;;;;;;;10.70;7.03;;;;;;;9.57;100.00;101715.75;7394583;19;20400;-40
2023/05/14 02:17:40;;;;;;;14.37;7.77;;;;;;;9.55;100.00;101725.03;7392967;19;20440;-41
2023/05/14 02:20:11;;;;;;;12.00;7.33;;;;;;;9.57;100.00;101736.34;7395230;19;20433;-41
2023/05/14 02:22:44;;;;;;;10.10;6.67;;;;;;;9.58;100.00;101743.28;7388842;19;20468;-41
2023/05/14 02:25:14;;;;;;;11.80;7.40;;;;;;;9.57;100.00;101738.03;7395420;19;20400;-41
2023/05/14 02:27:44;;;;;;;12.63;7.40;;;;;;;9.57;100.00;101725.13;7392742;19;20453;-41
2023/05/14 02:30:14;;;;;;;11.10;6.80;;;;;;;9.53;100.00;101729.22;7394852;19;20416;-45
2023/05/14 02:32:44;;;;;;;11.30;7.90;;;;;;;9.53;100.00;101731.78;7391044;19;20455;-43
2023/05/14 02:35:14;;;;;;;18.47;9.57;;;;;;;9.52;100.00;101732.59;7396363;19;20780;-42
2023/05/14 02:37:46;;;;;;;12.70;8.30;;;;;;;9.49;100.00;101726.38;7392239;19;20792;-45
2023/05/14 02:40:16;;;;;;;13.03;7.87;;;;;;;9.44;100.00;101732.13;7394434;19;20420;-42
2023/05/14 02:42:46;;;;;;;12.80;7.87;;;;;;;9.41;100.00;101731.03;7390261;19;20455;-45
2023/05/14 02:45:15;;;;;;;13.00;7.87;;;;;;;9.37;100.00;101726.47;7394488;19;21101;-42
2023/05/14 02:47:45;;;;;;;16.20;7.80;;;;;;;9.36;100.00;101730.75;7393742;19;20440;-44
2023/05/14 02:50:14;;;;;;;9.57;7.30;;;;;;;9.33;100.00;101733.13;7394829;19;20943;-42
2023/05/14 02:52:46;;;;;;;27.43;14.50;;;;;;;9.27;100.00;101731.06;7391137;19;20832;-41
2023/05/14 02:55:16;;;;;;;12.70;7.77;;;;;;;9.28;100.00;101735.41;7393690;19;20412;-42
2023/05/14 02:57:45;;;;;;;15.50;8.63;;;;;;;9.30;100.00;101740.69;7391757;19;20893;-40
2023/05/14 03:00:16;;;;;;;14.17;8.10;;;;;;;9.30;100.00;101746.72;7394051;19;20431;-44
2023/05/14 03:02:46;;;;;;;11.27;7.97;;;;;;;9.29;100.00;101742.34;7390458;19;20458;-43
2023/05/14 03:05:16;;;;;;;13.93;7.10;;;;;;;9.35;100.00;101753.84;7395326;19;20410;-41
2023/05/14 03:07:48;;;;;;;16.70;7.73;;;;;;;9.32;100.00;101765.72;7387310;19;20435;-42
2023/05/14 03:10:18;;;;;;;12.10;7.40;;;;;;;9.33;100.00;101758.88;7388758;19;20392;-42
2023/05/14 03:12:48;;;;;;;21.60;10.97;;;;;;;9.36;100.00;101771.06;7385148;19;20428;-43
2023/05/14 03:15:17;;;;;;;11.50;7.43;;;;;;;9.40;100.00;101770.47;7388885;19;20388;-43
2023/05/14 03:17:47;;;;;;;16.80;10.07;;;;;;;9.43;100.00;101768.06;7386679;19;20423;-42
2023/05/14 03:20:17;;;;;;;11.53;7.93;;;;;;;9.39;100.00;101768.69;7388297;19;20395;-42
2023/05/14 03:22:49;;;;;;;15.50;9.13;;;;;;;9.37;100.00;101762.53;7385447;19;20974;-40
2023/05/14 03:25:19;;;;;;;10.80;7.47;;;;;;;9.26;100.00;101764.44;7387989;19;20391;-42
2023/05/14 03:27:48;;;;;;;11.13;7.20;;;;;;;9.19;100.00;101758.03;7387096;19;20958;-41
2023/05/14 03:30:18;;;;;;;11.27;7.90;;;;;;;9.18;100.00;101757.13;7388512;19;20393;-42
2023/05/14 03:32:47;;;;;;;12.90;7.37;;;;;;;9.15;100.00;101746.66;7388258;19;20447;-43
2023/05/14 03:35:17;;;;;;;13.30;7.77;;;;;;;9.16;100.00;101752.66;7389022;19;20449;-42
2023/05/14 03:37:49;;;;;;;12.70;8.30;;;;;;;9.22;100.00;101753.06;7384793;19;20436;-43
2023/05/14 03:40:20;;;;;;;19.20;10.40;;;;;;;9.26;100.00;101760.19;7389102;19;20400;-41
2023/05/14 03:42:50;;;;;;;11.90;8.30;;;;;;;9.29;100.00;101770.66;7380553;19;20459;-44
2023/05/14 03:45:19;;;;;;;13.20;8.67;;;;;;;9.11;100.00;101770.41;7392044;19;20415;-42
2023/05/14 03:47:49;;;;;;;11.70;7.93;;;;;;;8.93;100.00;101780.44;7390053;19;20444;-41
2023/05/14 03:50:18;;;;;;;15.40;8.63;;;;;;;8.86;100.00;101798.81;7392300;19;20407;-40
2023/05/14 03:52:51;;;;;;;17.07;8.53;;;;;;;8.78;100.00;101812.06;7388463;19;20472;-43
2023/05/14 03:55:21;;;;;;;16.77;9.80;;;;;;;8.75;100.00;101822.16;7392069;19;20977;-40
2023/05/14 03:57:50;;;;;;;13.33;8.57;;;;;;;8.73;100.00;101833.16;7388132;19;20443;-41
2023/05/14 04:00:20;;;;;;;13.63;8.30;;;;;;;8.77;100.00;101836.03;7391132;19;20419;-42
2023/05/14 04:02:50;;;;;;;15.70;9.20;;;;;;;8.85;100.00;101840.78;7388206;19;21186;-42
2023/05/14 04:05:20;;;;;;;10.97;7.90;;;;;;;8.87;100.00;101836.66;7391593;19;20411;-43
2023/05/14 04:07:52;;;;;;;14.33;8.77;;;;;;;8.95;100.00;101834.56;7390073;19;20868;-42
2023/05/14 04:10:21;;;;;;;12.73;8.67;;;;;;;8.98;100.00;101834.78;7391502;19;20460;-44
2023/05/14 04:12:51;;;;;;;10.67;8.10;;;;;;;8.97;100.00;101833.88;7386970;19;20472;-42
2023/05/14 04:15:21;;;;;;;14.97;9.77;;;;;;;9.04;100.00;101823.16;7386024;19;20426;-45
2023/05/14 04:17:50;;;;;;;13.63;9.10;;;;;;;9.09;100.00;101828.66;7388631;19;20678;-40
2023/05/14 04:20:20;;;;;;;13.47;8.70;;;;;;;9.12;100.00;101825.38;7391420;19;20411;-43
2023/05/14 04:22:53;;;;;;;15.80;9.67;;;;;;;9.14;100.00;101816.94;7387709;19;20467;-43
2023/05/14 04:25:23;;;;;;;11.30;8.37;;;;;;;9.15;100.00;101823.00;7391222;19;20439;-42
2023/05/14 04:27:53;;;;;;;14.70;8.00;;;;;;;9.20;100.00;101821.59;7388832;19;20552;-44
2023/05/14 04:30:22;;;;;;;15.40;8.33;;;;;;;9.25;100.00;101815.06;7390728;19;20970;-42
2023/05/14 04:32:53;;;;;;;12.90;8.70;;;;;;;9.25;100.00;101817.66;7387355;19;20463;-44
2023/05/14 04:35:22;;;;;;;12.80;8.07;;;;;;;9.28;100.00;101815.25;7391248;19;20410;-41
2023/05/14 04:37:56;;;;;;;15.77;8.20;;;;;;;9.30;100.00;101813.69;7387479;19;20443;-41
2023/05/14 04:40:25;;;;;;;15.23;8.70;;;;;;;9.43;100.00;101806.72;7390966;19;20441;-42
2023/05/14 04:42:55;;;;;;;15.47;8.63;;;;;;;9.54;100.00;101808.28;7386324;19;20522;-41
2023/05/14 04:45:25;;;;;;;14.80;9.10;;;;;;;9.65;100.00;101802.94;7391325;19;20438;-42
2023/05/14 04:47:55;;;;;;;14.30;8.20;;;;;;;9.70;100.00;101798.94;7394885;19;20468;-42
2023/05/14 04:50:25;;;;;;;20.27;11.80;;;;;;;9.76;100.00;101794.19;7399798;19;20499;-42
2023/05/14 04:52:57;;;;;;;13.17;8.37;;;;;;;9.89;100.00;101789.78;7394499;19;20451;-43
2023/05/14 04:55:27;;;;;;;11.77;8.10;;;;;;;9.89;100.00;101789.78;7397587;19;20404;-43
2023/05/14 04:57:56;;;;;;;14.60;8.30;;;;;;;9.95;100.00;101782.41;7394199;19;20472;-42
2023/05/14 05:00:27;;;;;;;10.23;7.33;;;;;;;9.98;100.00;101774.84;7396903;19;20396;-45
2023/05/14 05:02:57;;;;;;;12.73;8.00;;;;;;;10.13;100.00;101772.31;7393400;19;20463;-45
2023/05/14 05:05:26;;;;;;;12.80;7.40;;;;;;;10.18;100.00;101770.00;7399481;19;20766;-44
2023/05/14 05:07:58;;;;;;;12.20;8.07;;;;;;;10.34;100.00;101764.97;7395657;19;20470;-42
2023/05/14 05:10:28;;;;;;;13.27;7.73;;;;;;;10.42;100.00;101751.63;7397553;19;20409;-44
2023/05/14 05:12:58;;;;;;;12.30;7.37;;;;;;;10.43;100.00;101744.00;7393074;19;20446;-42
2023/05/14 05:15:27;;;;;;;13.63;8.40;;;;;;;10.49;100.00;101730.56;7397874;19;20437;-44
2023/05/14 05:17:57;;;;;;;13.03;7.90;;;;;;;10.55;100.00;101725.75;7393542;19;20795;-42
2023/05/14 05:20:27;;;;;;;12.27;8.50;;;;;;;10.64;100.00;101717.66;7396980;19;20411;-46
2023/05/14 05:22:59;;;;;;;11.20;7.50;;;;;;;10.88;100.00;101717.25;7392913;19;20469;-43
2023/05/14 05:25:29;;;;;;;13.03;8.30;;;;;;;10.89;100.00;101699.28;7396625;19;20938;-43
2023/05/14 05:27:58;;;;;;;15.73;7.77;;;;;;;10.92;100.00;101696.84;7394434;19;20462;-42
2023/05/14 05:30:29;;;;;;;14.90;7.90;;;;;;;10.97;100.00;101681.59;7399033;19;20438;-41
2023/05/14 05:32:58;;;;;;;13.37;7.00;;;;;;;11.07;100.00;101677.81;7392875;19;20443;-44
2023/05/14 05:35:28;;;;;;;13.20;7.70;;;;;;;11.18;100.00;101676.72;7393238;19;20497;-41
2023/05/14 05:38:00;;;;;;;12.60;7.83;;;;;;;11.28;100.00;101661.72;7393555;19;20457;-43
2023/05/14 05:40:30;;;;;;;13.50;8.40;;;;;;;11.35;100.00;101659.53;7396414;19;20413;-41
2023/05/14 05:42:59;;;;;;;10.40;7.70;;;;;;;11.48;100.00;101650.75;7389350;19;20445;-44
2023/05/14 05:45:29;;;;;;;14.57;8.00;;;;;;;11.54;100.00;101637.25;7396276;19;20443;-45
2023/05/14 05:47:58;;;;;;;10.77;6.90;;;;;;;11.56;100.00;101632.16;7393472;19;20442;-44
2023/05/14 05:50:28;;;;;;;12.10;6.63;;;;;;;11.59;100.00;101615.13;7395628;19;20950;-41
2023/05/14 05:53:00;;;;;;;10.20;6.80;;;;;;;11.73;100.00;101615.81;7391561;19;20996;-44
2023/05/14 05:55:30;;;;;;;9.53;6.70;;;;;;;11.84;100.00;101600.84;7395954;19;20404;-44
2023/05/14 05:58:00;;;;;;;9.77;6.80;;;;;;;12.01;100.00;101591.34;7392473;19;20472;-40
2023/05/14 06:00:30;;;;;;;10.70;7.43;;;;;;;12.19;100.00;101584.44;7395587;19;20430;-45
2023/05/14 06:03:02;;;;;;;10.80;6.80;;;;;;;12.32;100.00;101575.56;7391316;19;20456;-45
2023/05/14 06:05:32;;;;;;;10.87;6.40;;;;;;;12.37;100.00;101561.16;7397197;19;20954;-42
2023/05/14 06:08:04;;;;;;;10.67;6.50;;;;;;;12.48;100.00;101534.06;7393750;19;20785;-43
2023/05/14 06:10:35;;;;;;;10.10;6.70;;;;;;;12.71;100.00;101523.88;7396077;19;20410;-41
2023/05/14 06:13:05;;;;;;;10.90;6.70;;;;;;;12.87;100.00;101514.22;7389334;19;20482;-39
2023/05/14 06:15:35;;;;;;;15.00;7.50;;;;;;;13.02;100.00;101514.00;7395705;19;20753;-40
2023/05/14 06:18:04;;;;;;;8.70;6.20;;;;;;;13.10;100.00;101497.09;7392341;19;20491;-42
2023/05/14 06:20:34;;;;;;;8.50;6.10;;;;;;;13.26;100.00;101493.44;7394473;19;20414;-42
2023/05/14 06:23:06;;;;;;;12.20;6.87;;;;;;;13.30;100.00;101473.72;7390950;19;20454;-41
2023/05/14 06:25:36;;;;;;;8.47;6.17;;;;;;;13.33;100.00;101466.97;7395535;19;20409;-46
2023/05/14 06:28:06;;;;;;;11.00;6.00;;;;;;;13.35;100.00;101452.34;7392595;19;20470;-44
2023/05/14 06:30:35;;;;;;;9.80;5.90;;;;;;;13.45;100.00;101447.56;7395720;19;20403;-45
2023/05/14 06:33:05;;;;;;;10.07;5.90;;;;;;;13.55;100.00;101426.41;7391855;19;20453;-44
2023/05/14 06:35:35;;;;;;;7.90;5.63;;;;;;;13.67;100.00;101412.16;7394833;19;20411;-43
2023/05/14 06:38:07;;;;;;;12.47;7.60;;;;;;;13.96;100.00;101412.41;7392190;19;20444;-42
2023/05/14 06:40:37;;;;;;;10.33;6.67;;;;;;;14.13;100.00;101381.91;7394675;19;21098;-42
2023/05/14 06:43:06;;;;;;;10.23;5.70;;;;;;;14.27;100.00;101353.88;7379133;19;20458;-42
2023/05/14 06:45:36;;;;;;;9.90;5.20;;;;;;;14.35;100.00;101323.88;7394732;19;20428;-43
2023/05/14 06:48:08;;;;;;;11.27;5.17;;;;;;;14.43;100.00;101309.47;7391549;19;20458;-44
2023/05/14 06:50:38;;;;;;;7.87;4.90;;;;;;;14.55;100.00;101292.53;7395037;19;20408;-40
2023/05/14 06:53:10;;;;;;;8.03;4.93;;;;;;;14.72;100.00;101290.50;7390317;19;20445;-41
2023/05/14 06:55:40;;;;;;;9.40;5.63;;;;;;;14.82;100.00;101284.81;7394191;19;20774;-41
2023/05/14 06:58:10;;;;;;;7.23;5.00;;;;;;;14.97;100.00;101284.41;7391745;19;20441;-42
2023/05/14 07:00:39;;;;;;;10.63;5.30;;;;;;;15.13;100.00;101271.94;7394238;19;20413;-43
2023/05/14 07:03:09;;;;;;;7.73;4.83;;;;;;;15.10;100.00;101262.31;7389694;19;20892;-42
2023/05/14 07:05:40;;;;;;;18.60;5.53;;;;;;;15.24;100.00;101252.31;7396536;19;20776;-43
2023/05/14 07:08:12;;;;;;;9.67;5.60;;;;;;;15.36;100.00;101248.34;7392185;19;20535;-41
2023/05/14 07:10:41;;;;;;;8.23;4.97;;;;;;;15.40;100.00;101252.81;7394455;19;20403;-41
2023/05/14 07:13:11;;;;;;;7.93;4.60;;;;;;;15.50;100.00;101247.03;7390588;19;20458;-42
2023/05/14 07:15:40;;;;;;;9.33;4.70;;;;;;;15.61;100.00;101243.84;7395079;19;20410;-42
2023/05/14 07:18:10;;;;;;;7.33;4.57;;;;;;;15.68;100.00;101245.78;7391441;19;20442;-45
2023/05/14 07:20:39;;;;;;;7.37;4.60;;;;;;;15.76;100.00;101249.50;7394338;19;20419;-40
2023/05/14 07:23:11;;;;;;;9.07;4.70;;;;;;;15.85;100.00;101237.59;7390596;19;20834;-41
2023/05/14 07:25:41;;;;;;;6.50;4.40;;;;;;;15.93;100.00;101238.72;7394097;19;20423;-43
2023/05/14 07:28:10;;;;;;;8.57;4.80;;;;;;;16.01;100.00;101263.22;7390790;19;20548;-43
2023/05/14 07:30:40;;;;;;;6.60;4.43;;;;;;;16.22;100.00;101272.47;7393815;19;20407;-41
2023/05/14 07:33:09;;;;;;;8.63;4.30;;;;;;;16.35;100.00;101280.59;7389216;19;20454;-40
2023/05/14 07:35:39;;;;;;;7.20;4.20;;;;;;;16.48;100.00;101293.09;7392985;19;20860;-42
2023/05/14 07:38:11;;;;;;;6.73;4.37;;;;;;;16.58;100.00;101289.00;7391873;19;20785;-44
2023/05/14 07:40:41;;;;;;;7.17;4.33;;;;;;;16.69;100.00;101302.28;7393051;19;20432;-42
2023/05/14 07:43:11;;;;;;;7.90;4.70;;;;;;;16.82;100.00;101311.31;7388517;19;20461;-41
2023/05/14 07:45:41;;;;;;;8.30;5.30;;;;;;;16.74;100.00;101325.03;7392844;19;20412;-42
2023/05/14 07:48:10;;;;;;;7.77;4.47;;;;;;;16.99;100.00;101319.53;7389879;19;20439;-45
2023/05/14 07:50:40;;;;;;;8.63;4.60;;;;;;;17.09;100.00;101352.84;7392970;19;20406;-41
2023/05/14 07:53:12;;;;;;;10.57;4.57;;;;;;;17.24;100.00;101359.25;7388944;19;20462;-42
2023/05/14 07:55:43;;;;;;;8.97;5.17;;;;;;;17.24;100.00;101387.94;7392020;19;20410;-41
2023/05/14 07:58:13;;;;;;;7.93;4.93;;;;;;;17.35;100.00;101403.84;7389995;19;20988;-44
2023/05/14 08:00:42;;;;;;;7.03;3.93;;;;;;;17.36;100.00;101452.53;7391934;19;20981;-42
2023/05/14 08:03:12;;;;;;;7.63;4.50;;;;;;;17.53;100.00;101446.00;7388484;19;20489;-44
2023/05/14 08:05:41;;;;;;;7.67;4.07;;;;;;;17.72;100.00;101455.97;7392004;19;20966;-45
2023/05/14 08:08:14;;;;;;;7.83;4.77;;;;;;;17.81;100.00;101464.03;7390003;19;20462;-41
2023/05/14 08:10:43;;;;;;;6.60;3.80;;;;;;;17.82;100.00;101484.06;7392762;19;20406;-40
2023/05/14 08:13:13;;;;;;;6.67;4.00;;;;;;;17.87;100.00;101477.22;7386389;19;20472;-41
2023/05/14 08:15:42;;;;;;;11.77;4.13;;;;;;;17.84;100.00;101477.16;7392159;19;20426;-44
2023/05/14 08:18:12;;;;;;;8.77;4.37;;;;;;;17.95;100.00;101475.66;7389116;19;20447;-44
2023/05/14 08:20:41;;;;;;;7.30;4.10;;;;;;;18.11;100.00;101470.84;7394950;19;20407;-43
2023/05/14 08:23:13;;;;;;;8.43;4.17;;;;;;;18.06;100.00;101473.31;7394241;19;20446;-43
2023/05/14 08:25:43;;;;;;;7.83;3.60;;;;;;;17.97;100.00;101474.81;7398642;19;20435;-46
2023/05/14 08:28:12;;;;;;;5.70;3.63;;;;;;;17.94;100.00;101481.75;7396381;19;20454;-44
2023/05/14 08:30:42;;;;;;;11.17;4.20;;;;;;;18.17;100.00;101463.13;7397423;19;20407;-42
2023/05/14 08:33:12;;;;;;;6.97;4.00;;;;;;;18.41;100.00;101447.94;7392176;19;20863;-44
2023/05/14 08:35:41;;;;;;;9.90;4.00;;;;;;;18.45;100.00;101454.97;7394403;19;20399;-43
2023/05/14 08:38:13;;;;;;;7.20;4.00;;;;;;;18.52;99.28;101461.22;7397511;19;20455;-42
2023/05/14 08:40:43;;;;;;;6.17;3.67;;;;;;;18.60;97.78;101464.84;7397799;19;20434;-43
2023/05/14 08:43:13;;;;;;;6.17;4.10;;;;;;;18.69;97.15;101465.03;7392770;19;21122;-42
2023/05/14 08:45:43;;;;;;;8.53;5.40;;;;;;;18.88;98.25;101457.56;7397657;19;20419;-43
2023/05/14 08:48:15;;;;;;;7.30;4.00;;;;;;;19.00;97.36;101455.16;7395921;19;20443;-46
2023/05/14 08:50:45;;;;;;;8.30;4.10;;;;;;;19.12;97.23;101458.88;7397123;19;20422;-44
2023/05/14 08:53:17;;;;;;;11.33;5.10;;;;;;;19.05;95.64;101457.88;7397322;19;20450;-41
2023/05/14 08:55:47;;;;;;;14.53;5.83;;;;;;;19.09;95.83;101453.59;7397768;19;20435;-41
2023/05/14 08:58:17;;;;;;;9.57;5.20;;;;;;;19.26;95.17;101451.25;7397864;19;20447;-44
2023/05/14 09:00:46;;;;;;;8.07;3.80;;;;;;;19.19;92.24;101465.97;7396995;19;20399;-41
2023/05/14 09:03:17;;;;;;;10.23;5.00;;;;;;;19.25;92.67;101466.09;7396175;19;20482;-46
2023/05/14 09:05:47;;;;;;;36.80;16.50;;;;;;;19.41;91.47;101461.09;7396886;19;20403;-42
2023/05/14 09:08:19;;;;;;;10.90;4.97;;;;;;;19.42;88.18;101460.22;7398248;19;20462;-43
2023/05/14 09:10:48;;;;;;;8.33;3.87;;;;;;;19.41;87.51;101463.72;7397505;19;20412;-43
2023/05/14 09:13:18;;;;;;;9.00;3.50;;;;;;;19.53;87.30;101470.91;7396230;19;20471;-47
2023/05/14 09:15:48;;;;;;;8.33;3.60;;;;;;;19.52;86.43;101469.09;7397419;19;20408;-41
2023/05/14 09:18:18;;;;;;;10.20;3.73;;;;;;;19.65;87.34;101464.97;7396613;19;20474;-40
2023/05/14 09:20:48;;;;;;;8.27;4.00;;;;;;;19.70;86.21;101464.16;7396994;19;20431;-43
2023/05/14 09:23:20;;;;;;;8.20;4.03;;;;;;;19.63;84.93;101461.44;7395963;19;20454;-40
2023/05/14 09:25:50;;;;;;;9.43;4.80;;;;;;;19.88;86.23;101456.56;7394246;19;20785;-40
2023/05/14 09:28:20;;;;;;;19.93;4.87;;;;;;;19.99;84.96;101459.38;7395818;19;20411;-41
2023/05/14 09:30:52;;;;;;;9.20;5.80;;;;;;;20.06;85.89;101455.97;7395055;19;20430;-40
2023/05/14 09:33:28;;;;;;;8.20;3.30;;;;;;;20.04;84.14;101455.09;7394314;19;20821;-43
2023/05/14 09:36:01;;;;;;;13.20;6.90;;;;;;;20.14;83.84;101453.47;7394552;19;20432;-42
2023/05/14 09:38:34;;;;;;;11.43;5.63;;;;;;;19.93;83.71;101449.66;7396741;19;20415;-40
2023/05/14 09:41:03;;;;;;;7.23;3.10;;;;;;;19.98;83.69;101453.25;7391783;19;20411;-41
2023/05/14 09:43:33;;;;;;;9.43;4.10;;;;;;;20.24;84.04;101456.22;7394944;19;20443;-43
2023/05/14 09:46:02;;;;;;;7.97;4.43;;;;;;;20.39;83.73;101444.16;7392955;19;20416;-43
2023/05/14 09:48:32;;;;;;;22.00;10.40;;;;;;;20.43;83.36;101439.81;7396041;19;20486;-41
2023/05/14 09:51:04;;;;;;;21.00;11.77;;;;;;;20.62;84.22;101436.53;7393386;19;20404;-41
2023/05/14 09:53:37;;;;;;;35.87;21.37;;;;;;;20.66;84.04;101431.34;7395699;19;20443;-41
2023/05/14 09:56:07;;;;;;;21.63;11.63;;;;;;;20.71;83.84;101437.53;7391682;19;20412;-41
2023/05/14 09:58:36;;;;;;;6.93;4.73;;;;;;;20.47;83.61;101425.91;7395933;19;20439;-41
2023/05/14 10:01:07;;;;;;;22.87;14.07;;;;;;;20.18;86.01;101434.28;7389941;19;20427;-45
2023/05/14 10:03:37;;;;;;;7.70;4.07;;;;;;;19.97;83.17;101430.53;7394259;19;20427;-40
2023/05/14 10:06:09;;;;;;;8.87;4.93;;;;;;;20.41;82.63;101416.22;7393821;19;20512;-43
2023/05/14 10:08:45;;;;;;;9.37;3.10;;;;;;;20.45;81.66;101414.53;7395353;19;20413;-41
2023/05/14 10:11:16;;;;;;;7.83;4.33;;;;;;;20.17;82.21;101416.81;7381243;19;20415;-44
2023/05/14 10:13:51;;;;;;;11.10;5.23;;;;;;;20.22;81.69;101413.41;7395065;19;20451;-43
2023/05/14 10:16:23;;;;;;;6.50;3.80;;;;;;;20.31;80.27;101410.00;7391629;19;20423;-42
2023/05/14 10:18:54;;;;;;;5.73;3.30;;;;;;;20.70;80.18;101409.53;7397840;19;20786;-42
2023/05/14 10:21:26;;;;;;;7.27;4.20;;;;;;;20.73;79.59;101391.22;7390757;19;20411;-42
2023/05/14 10:23:59;;;;;;;6.00;3.57;;;;;;;20.58;77.96;101387.59;7395065;19;20439;-44
2023/05/14 10:26:29;;;;;;;7.43;4.00;;;;;;;20.66;77.97;101385.03;7389561;19;20973;-41
2023/05/14 10:28:58;;;;;;;8.43;3.33;;;;;;;20.74;76.92;101390.34;7396459;19;20408;-49
2023/05/14 10:31:50;;;;;;;9.97;4.13;;;;;;;20.85;77.88;101396.63;7390867;19;20417;-43
2023/05/14 10:34:36;;;;;;;9.93;4.07;;;;;;;21.05;76.82;101388.03;7394337;19;20459;-42
2023/05/14 10:37:06;;;;;;;6.27;2.97;;;;;;;21.26;74.13;101368.06;7390187;19;20447;-44
2023/05/14 10:39:46;;;;;;;9.87;5.00;;;;;;;21.37;73.27;101363.78;7396009;19;20404;-44
2023/05/14 10:42:18;;;;;;;7.80;4.07;;;;;;;21.31;73.51;101363.75;7383887;19;20990;-41
2023/05/14 10:44:54;;;;;;;6.03;3.07;;;;;;;21.35;74.69;101372.50;7391794;19;20784;-44
2023/05/14 10:47:23;;;;;;;6.80;3.30;;;;;;;21.14;73.37;101367.16;7390222;19;20450;-42
2023/05/14 10:49:55;;;;;;;6.43;3.63;;;;;;;21.04;75.65;101386.28;7395245;19;20408;-41
2023/05/14 10:52:25;;;;;;;10.80;4.80;;;;;;;20.56;73.14;101362.22;7389841;19;20853;-43
2023/05/14 10:54:59;;;;;;;7.10;3.23;;;;;;;20.49;73.99;101363.91;7395754;19;20439;-46
2023/05/14 10:57:33;;;;;;;9.20;2.90;;;;;;;20.23;73.45;101365.41;7392392;19;20788;-42
2023/05/14 11:00:06;;;;;;;7.83;3.50;;;;;;;20.37;74.50;101357.66;7394768;19;20403;-41
2023/05/14 11:02:37;;;;;;;9.10;3.90;;;;;;;20.31;73.13;101357.59;7389336;19;20451;-41
2023/05/14 11:05:09;;;;;;;7.10;4.10;;;;;;;20.48;73.13;101349.94;7394540;19;20396;-46
2023/05/14 11:07:40;;;;;;;10.47;4.43;;;;;;;21.12;75.28;101347.88;7391201;19;20430;-42
2023/05/14 11:10:14;;;;;;;8.27;3.57;;;;;;;21.53;73.86;101348.16;7393672;19;20403;-41
2023/05/14 11:12:45;;;;;;;7.20;3.10;;;;;;;21.50;73.07;101337.59;7390000;19;20545;-43
2023/05/14 11:15:16;;;;;;;8.27;3.60;;;;;;;21.20;72.28;101337.44;7393629;19;20424;-44
2023/05/14 11:17:47;;;;;;;6.73;3.63;;;;;;;21.36;72.44;101335.78;7390769;19;20463;-42
2023/05/14 11:20:17;;;;;;;7.57;4.30;;;;;;;21.16;72.66;101333.91;7393859;19;20438;-44
2023/05/14 11:22:50;;;;;;;8.37;4.70;;;;;;;21.01;74.17;101333.78;7389960;19;20483;-41
2023/05/14 11:25:24;;;;;;;6.47;3.67;;;;;;;20.69;74.01;101343.13;7393924;19;21032;-44
2023/05/14 11:27:57;;;;;;;7.70;3.63;;;;;;;20.69;75.17;101337.00;7390418;19;20538;-41
2023/05/14 11:30:28;;;;;;;7.33;3.63;;;;;;;20.59;74.57;101342.16;7393299;19;20415;-43
2023/05/14 11:32:57;;;;;;;7.17;3.67;;;;;;;20.44;75.46;101345.53;7390984;19;20466;-42